sensor_id;sensor_type;location;lat;lon;timestamp;temperature;humidity
5621;DHT22;2832;50.864;12.186;2023-03-26T00:01:41;14.00;99.90
5621;DHT22;2832;50.864;12.186;2023-03-26T00:04:11;14.00;99.90
5621;DHT22;2832;50.864;12.186;2023-03-26T00:06:56;14.00;99.90
5621;DHT22;2832;50.864;12.186;2023-03-26T00:10:21;14.00;99.90
5621;DHT22;2832;50.864;12.186;2023-03-26T00:12:51;14.10;99.90
5621;DHT22;2832;50.864;12.186;2023-03-26T00:15:20;14.00;99.90
5621;DHT22;2832;50.864;12.186;2023-03-26T00:17:48;14.00;99.90
5621;DHT22;2832;50.864;12.186;2023-03-26T00:20:17;14.00;99.90
5621;DHT22;2832;50.864;12.186;2023-03-26T00:22:45;14.00;99.90
5621;DHT22;2832;50.864;12.186;2023-03-26T00:25:13;14.00;99.90
5621;DHT22;2832;50.864;12.186;2023-03-26T00:27:41;14.00;99.90
5621;DHT22;2832;50.864;12.186;2023-03-26T00:30:11;14.00;99.90
5621;DHT22;2832;50.864;12.186;2023-03-26T00:32:41;13.90;99.90
5621;DHT22;2832;50.864;12.186;2023-03-26T00:35:09;13.90;99.90
5621;DHT22;2832;50.864;12.186;2023-03-26T00:37:39;13.90;99.90
5621;DHT22;2832;50.864;12.186;2023-03-26T00:40:10;13.90;99.90
5621;DHT22;2832;50.864;12.186;2023-03-26T00:42:38;13.90;99.90
5621;DHT22;2832;50.864;12.186;2023-03-26T00:45:08;13.90;99.90
5621;DHT22;2832;50.864;12.186;2023-03-26T00:47:38;14.00;99.90
5621;DHT22;2832;50.864;12.186;2023-03-26T00:50:10;14.00;99.90
5621;DHT22;2832;50.864;12.186;2023-03-26T00:52:41;14.00;99.90
5621;DHT22;2832;50.864;12.186;2023-03-26T00:55:10;14.00;99.90
5621;DHT22;2832;50.864;12.186;2023-03-26T00:57:38;14.00;99.90
5621;DHT22;2832;50.864;12.186;2023-03-26T01:00:09;14.00;99.90
5621;DHT22;2832;50.864;12.186;2023-03-26T01:02:42;14.00;99.90
5621;DHT22;2832;50.864;12.186;2023-03-26T01:05:44;14.00;99.90
5621;DHT22;2832;50.864;12.186;2023-03-26T01:08:26;14.00;99.90
5621;DHT22;2832;50.864;12.186;2023-03-26T01:10:58;13.90;99.90
5621;DHT22;2832;50.864;12.186;2023-03-26T01:13:35;13.90;99.90
5621;DHT22;2832;50.864;12.186;2023-03-26T01:16:08;14.00;99.90
5621;DHT22;2832;50.864;12.186;2023-03-26T01:18:46;13.90;99.90
5621;DHT22;2832;50.864;12.186;2023-03-26T01:21:20;13.90;99.90
5621;DHT22;2832;50.864;12.186;2023-03-26T01:23:57;13.80;99.90
5621;DHT22;2832;50.864;12.186;2023-03-26T01:26:41;13.80;99.90
5621;DHT22;2832;50.864;12.186;2023-03-26T01:29:18;13.90;99.90
5621;DHT22;2832;50.864;12.186;2023-03-26T01:31:52;13.80;99.90
5621;DHT22;2832;50.864;12.186;2023-03-26T01:34:29;13.80;99.90
5621;DHT22;2832;50.864;12.186;2023-03-26T01:37:12;13.80;99.90
5621;DHT22;2832;50.864;12.186;2023-03-26T01:39:50;13.80;99.90
5621;DHT22;2832;50.864;12.186;2023-03-26T01:42:29;13.80;99.90
5621;DHT22;2832;50.864;12.186;2023-03-26T01:45:06;13.70;99.90
5621;DHT22;2832;50.864;12.186;2023-03-26T01:47:37;13.80;99.90
5621;DHT22;2832;50.864;12.186;2023-03-26T01:50:08;13.70;99.90
5621;DHT22;2832;50.864;12.186;2023-03-26T01:52:36;13.70;99.90
5621;DHT22;2832;50.864;12.186;2023-03-26T01:55:07;13.70;99.90
5621;DHT22;2832;50.864;12.186;2023-03-26T01:57:46;13.70;99.90
5621;DHT22;2832;50.864;12.186;2023-03-26T02:00:24;13.60;99.90
5621;DHT22;2832;50.864;12.186;2023-03-26T02:03:08;13.70;99.90
5621;DHT22;2832;50.864;12.186;2023-03-26T02:05:48;13.70;99.90
5621;DHT22;2832;50.864;12.186;2023-03-26T02:08:23;13.70;99.90
5621;DHT22;2832;50.864;12.186;2023-03-26T02:10:58;13.80;99.90
5621;DHT22;2832;50.864;12.186;2023-03-26T02:13:30;13.80;99.90
5621;DHT22;2832;50.864;12.186;2023-03-26T02:16:01;13.80;99.90
5621;DHT22;2832;50.864;12.186;2023-03-26T02:18:29;13.70;99.90
5621;DHT22;2832;50.864;12.186;2023-03-26T02:21:07;13.80;99.90
5621;DHT22;2832;50.864;12.186;2023-03-26T02:23:39;13.70;99.90
5621;DHT22;2832;50.864;12.186;2023-03-26T02:26:11;13.80;99.90
5621;DHT22;2832;50.864;12.186;2023-03-26T02:28:39;13.70;99.90
5621;DHT22;2832;50.864;12.186;2023-03-26T02:31:08;13.60;99.90
5621;DHT22;2832;50.864;12.186;2023-03-26T02:33:37;13.70;99.90
5621;DHT22;2832;50.864;12.186;2023-03-26T02:36:06;13.60;99.90
5621;DHT22;2832;50.864;12.186;2023-03-26T02:38:34;13.60;99.90
5621;DHT22;2832;50.864;12.186;2023-03-26T02:41:02;13.60;99.90
5621;DHT22;2832;50.864;12.186;2023-03-26T02:43:31;13.60;99.90
5621;DHT22;2832;50.864;12.186;2023-03-26T02:45:59;13.50;99.90
5621;DHT22;2832;50.864;12.186;2023-03-26T02:48:27;13.50;99.90
5621;DHT22;2832;50.864;12.186;2023-03-26T02:50:56;13.50;99.90
5621;DHT22;2832;50.864;12.186;2023-03-26T02:53:24;13.60;99.90
5621;DHT22;2832;50.864;12.186;2023-03-26T02:55:55;13.50;99.90
5621;DHT22;2832;50.864;12.186;2023-03-26T02:58:24;13.60;99.90
5621;DHT22;2832;50.864;12.186;2023-03-26T03:00:53;13.50;99.90
5621;DHT22;2832;50.864;12.186;2023-03-26T03:03:22;13.50;99.90
5621;DHT22;2832;50.864;12.186;2023-03-26T03:05:53;13.50;99.90
5621;DHT22;2832;50.864;12.186;2023-03-26T03:08:23;13.50;99.90
5621;DHT22;2832;50.864;12.186;2023-03-26T03:10:58;13.50;99.90
5621;DHT22;2832;50.864;12.186;2023-03-26T03:13:26;13.50;99.90
5621;DHT22;2832;50.864;12.186;2023-03-26T03:15:56;13.50;99.90
5621;DHT22;2832;50.864;12.186;2023-03-26T03:18:24;13.50;99.90
5621;DHT22;2832;50.864;12.186;2023-03-26T03:20:51;13.50;99.90
5621;DHT22;2832;50.864;12.186;2023-03-26T03:23:20;13.50;99.90
5621;DHT22;2832;50.864;12.186;2023-03-26T03:25:50;13.50;99.90
5621;DHT22;2832;50.864;12.186;2023-03-26T03:28:22;13.50;99.90
5621;DHT22;2832;50.864;12.186;2023-03-26T03:30:50;13.40;99.90
5621;DHT22;2832;50.864;12.186;2023-03-26T03:33:20;13.50;99.90
5621;DHT22;2832;50.864;12.186;2023-03-26T03:35:49;13.50;99.90
5621;DHT22;2832;50.864;12.186;2023-03-26T03:38:17;13.50;99.90
5621;DHT22;2832;50.864;12.186;2023-03-26T03:40:45;13.50;99.90
5621;DHT22;2832;50.864;12.186;2023-03-26T03:43:13;13.50;99.90
5621;DHT22;2832;50.864;12.186;2023-03-26T03:45:41;13.50;99.90
5621;DHT22;2832;50.864;12.186;2023-03-26T03:48:09;13.50;99.90
5621;DHT22;2832;50.864;12.186;2023-03-26T03:50:38;13.50;99.90
5621;DHT22;2832;50.864;12.186;2023-03-26T03:53:06;13.50;99.90
5621;DHT22;2832;50.864;12.186;2023-03-26T03:55:34;13.40;99.90
5621;DHT22;2832;50.864;12.186;2023-03-26T03:58:03;13.40;99.90
5621;DHT22;2832;50.864;12.186;2023-03-26T04:00:31;13.50;99.90
5621;DHT22;2832;50.864;12.186;2023-03-26T04:02:58;13.40;99.90
5621;DHT22;2832;50.864;12.186;2023-03-26T04:05:31;13.50;99.90
5621;DHT22;2832;50.864;12.186;2023-03-26T04:08:00;13.50;99.90
5621;DHT22;2832;50.864;12.186;2023-03-26T04:10:28;13.50;99.90
5621;DHT22;2832;50.864;12.186;2023-03-26T04:12:56;13.50;99.90
5621;DHT22;2832;50.864;12.186;2023-03-26T04:15:25;13.50;99.90
5621;DHT22;2832;50.864;12.186;2023-03-26T04:17:53;13.50;99.90
5621;DHT22;2832;50.864;12.186;2023-03-26T04:20:20;13.50;99.90
5621;DHT22;2832;50.864;12.186;2023-03-26T04:22:48;13.40;99.90
5621;DHT22;2832;50.864;12.186;2023-03-26T04:25:18;13.50;99.90
5621;DHT22;2832;50.864;12.186;2023-03-26T04:27:46;13.40;99.90
5621;DHT22;2832;50.864;12.186;2023-03-26T04:30:16;13.40;99.90
5621;DHT22;2832;50.864;12.186;2023-03-26T04:32:47;13.40;99.90
5621;DHT22;2832;50.864;12.186;2023-03-26T04:35:15;13.30;99.90
5621;DHT22;2832;50.864;12.186;2023-03-26T04:37:45;13.40;99.90
5621;DHT22;2832;50.864;12.186;2023-03-26T04:40:16;13.30;99.90
5621;DHT22;2832;50.864;12.186;2023-03-26T04:42:46;13.30;99.90
5621;DHT22;2832;50.864;12.186;2023-03-26T04:45:15;13.30;99.90
5621;DHT22;2832;50.864;12.186;2023-03-26T04:47:47;13.30;99.90
5621;DHT22;2832;50.864;12.186;2023-03-26T04:50:15;13.30;99.90
5621;DHT22;2832;50.864;12.186;2023-03-26T04:52:44;13.30;99.90
5621;DHT22;2832;50.864;12.186;2023-03-26T04:55:20;13.30;99.90
5621;DHT22;2832;50.864;12.186;2023-03-26T04:57:54;13.30;99.90
5621;DHT22;2832;50.864;12.186;2023-03-26T05:00:25;13.30;99.90
5621;DHT22;2832;50.864;12.186;2023-03-26T05:02:53;13.30;99.90
5621;DHT22;2832;50.864;12.186;2023-03-26T05:05:23;13.30;99.90
5621;DHT22;2832;50.864;12.186;2023-03-26T05:07:52;13.30;99.90
5621;DHT22;2832;50.864;12.186;2023-03-26T05:10:22;13.30;99.90
5621;DHT22;2832;50.864;12.186;2023-03-26T05:12:57;13.30;99.90
5621;DHT22;2832;50.864;12.186;2023-03-26T05:15:29;13.30;99.90
5621;DHT22;2832;50.864;12.186;2023-03-26T05:17:57;13.30;99.90
5621;DHT22;2832;50.864;12.186;2023-03-26T05:20:28;13.30;99.90
5621;DHT22;2832;50.864;12.186;2023-03-26T05:22:57;13.30;99.90
5621;DHT22;2832;50.864;12.186;2023-03-26T05:25:25;13.30;99.90
5621;DHT22;2832;50.864;12.186;2023-03-26T05:27:55;13.30;99.90
5621;DHT22;2832;50.864;12.186;2023-03-26T05:30:25;13.30;99.90
5621;DHT22;2832;50.864;12.186;2023-03-26T05:32:54;13.30;99.90
5621;DHT22;2832;50.864;12.186;2023-03-26T05:35:21;13.30;99.90
5621;DHT22;2832;50.864;12.186;2023-03-26T05:37:50;13.40;99.90
5621;DHT22;2832;50.864;12.186;2023-03-26T05:40:18;13.30;99.90
5621;DHT22;2832;50.864;12.186;2023-03-26T05:42:46;13.30;99.90
5621;DHT22;2832;50.864;12.186;2023-03-26T05:45:18;13.20;99.90
5621;DHT22;2832;50.864;12.186;2023-03-26T05:47:47;13.20;99.90
5621;DHT22;2832;50.864;12.186;2023-03-26T05:50:17;13.20;99.90
5621;DHT22;2832;50.864;12.186;2023-03-26T05:52:45;13.10;99.90
5621;DHT22;2832;50.864;12.186;2023-03-26T05:55:14;13.10;99.90
5621;DHT22;2832;50.864;12.186;2023-03-26T05:57:43;13.10;99.90
5621;DHT22;2832;50.864;12.186;2023-03-26T06:00:13;13.10;99.90
5621;DHT22;2832;50.864;12.186;2023-03-26T06:02:43;13.10;99.90
5621;DHT22;2832;50.864;12.186;2023-03-26T06:05:12;13.10;99.90
5621;DHT22;2832;50.864;12.186;2023-03-26T06:07:42;13.10;99.90
5621;DHT22;2832;50.864;12.186;2023-03-26T06:10:14;13.10;99.90
5621;DHT22;2832;50.864;12.186;2023-03-26T06:12:42;13.10;99.90
5621;DHT22;2832;50.864;12.186;2023-03-26T06:15:11;13.10;99.90
5621;DHT22;2832;50.864;12.186;2023-03-26T06:17:39;13.10;99.90
5621;DHT22;2832;50.864;12.186;2023-03-26T06:20:10;13.10;99.90
5621;DHT22;2832;50.864;12.186;2023-03-26T06:22:39;13.10;99.90
5621;DHT22;2832;50.864;12.186;2023-03-26T06:25:07;13.10;99.90
5621;DHT22;2832;50.864;12.186;2023-03-26T06:27:36;13.10;99.90
5621;DHT22;2832;50.864;12.186;2023-03-26T06:30:06;13.10;99.90
5621;DHT22;2832;50.864;12.186;2023-03-26T06:32:35;13.00;99.90
5621;DHT22;2832;50.864;12.186;2023-03-26T06:35:03;13.00;99.90
5621;DHT22;2832;50.864;12.186;2023-03-26T06:37:33;13.10;99.90
5621;DHT22;2832;50.864;12.186;2023-03-26T06:40:01;13.10;99.90
5621;DHT22;2832;50.864;12.186;2023-03-26T06:42:29;13.10;99.90
5621;DHT22;2832;50.864;12.186;2023-03-26T06:44:57;13.10;99.90
5621;DHT22;2832;50.864;12.186;2023-03-26T06:47:25;13.10;99.90
5621;DHT22;2832;50.864;12.186;2023-03-26T06:49:53;13.10;99.90
5621;DHT22;2832;50.864;12.186;2023-03-26T06:52:21;13.10;99.90
5621;DHT22;2832;50.864;12.186;2023-03-26T06:54:51;13.10;99.90
5621;DHT22;2832;50.864;12.186;2023-03-26T06:57:19;13.00;99.90
5621;DHT22;2832;50.864;12.186;2023-03-26T06:59:47;13.10;99.90
5621;DHT22;2832;50.864;12.186;2023-03-26T07:02:15;13.00;99.90
5621;DHT22;2832;50.864;12.186;2023-03-26T07:04:43;13.00;99.90
5621;DHT22;2832;50.864;12.186;2023-03-26T07:07:11;13.00;99.90
5621;DHT22;2832;50.864;12.186;2023-03-26T07:09:39;13.10;99.90
5621;DHT22;2832;50.864;12.186;2023-03-26T07:12:13;13.00;99.90
5621;DHT22;2832;50.864;12.186;2023-03-26T07:14:47;13.00;99.90
5621;DHT22;2832;50.864;12.186;2023-03-26T07:17:22;13.00;99.90
5621;DHT22;2832;50.864;12.186;2023-03-26T07:19:52;12.90;99.90
5621;DHT22;2832;50.864;12.186;2023-03-26T07:22:22;12.90;99.90
5621;DHT22;2832;50.864;12.186;2023-03-26T07:24:54;12.90;99.90
5621;DHT22;2832;50.864;12.186;2023-03-26T07:27:35;12.90;99.90
5621;DHT22;2832;50.864;12.186;2023-03-26T07:30:07;12.90;99.90
5621;DHT22;2832;50.864;12.186;2023-03-26T07:32:41;12.90;99.90
5621;DHT22;2832;50.864;12.186;2023-03-26T07:35:17;12.90;99.90
5621;DHT22;2832;50.864;12.186;2023-03-26T07:37:54;12.90;99.90
5621;DHT22;2832;50.864;12.186;2023-03-26T07:40:46;12.90;99.90
5621;DHT22;2832;50.864;12.186;2023-03-26T07:43:40;13.00;99.90
5621;DHT22;2832;50.864;12.186;2023-03-26T07:46:13;13.00;99.90
5621;DHT22;2832;50.864;12.186;2023-03-26T07:48:43;13.00;99.90
5621;DHT22;2832;50.864;12.186;2023-03-26T07:51:14;13.10;99.90
5621;DHT22;2832;50.864;12.186;2023-03-26T07:53:44;13.00;99.90
5621;DHT22;2832;50.864;12.186;2023-03-26T07:56:15;13.00;99.90
5621;DHT22;2832;50.864;12.186;2023-03-26T07:59:00;13.00;99.90
5621;DHT22;2832;50.864;12.186;2023-03-26T08:01:42;12.90;99.90
5621;DHT22;2832;50.864;12.186;2023-03-26T08:04:31;13.00;99.90
5621;DHT22;2832;50.864;12.186;2023-03-26T08:07:15;12.90;99.90
5621;DHT22;2832;50.864;12.186;2023-03-26T08:09:53;12.90;99.90
5621;DHT22;2832;50.864;12.186;2023-03-26T08:12:26;12.90;99.90
5621;DHT22;2832;50.864;12.186;2023-03-26T08:15:04;13.00;99.90
5621;DHT22;2832;50.864;12.186;2023-03-26T08:17:40;13.00;99.90
5621;DHT22;2832;50.864;12.186;2023-03-26T08:20:22;12.90;99.90
5621;DHT22;2832;50.864;12.186;2023-03-26T08:23:06;12.90;99.90
5621;DHT22;2832;50.864;12.186;2023-03-26T08:25:42;12.90;99.90
5621;DHT22;2832;50.864;12.186;2023-03-26T08:28:25;12.90;99.90
5621;DHT22;2832;50.864;12.186;2023-03-26T08:30:56;12.90;99.90
5621;DHT22;2832;50.864;12.186;2023-03-26T08:33:29;12.90;99.90
5621;DHT22;2832;50.864;12.186;2023-03-26T08:36:00;12.90;99.90
5621;DHT22;2832;50.864;12.186;2023-03-26T08:38:34;12.90;99.90
5621;DHT22;2832;50.864;12.186;2023-03-26T08:45:00;12.90;99.90
5621;DHT22;2832;50.864;12.186;2023-03-26T08:51:41;12.90;99.90
5621;DHT22;2832;50.864;12.186;2023-03-26T09:01:14;12.90;99.90
5621;DHT22;2832;50.864;12.186;2023-03-26T09:04:02;12.90;99.90
5621;DHT22;2832;50.864;12.186;2023-03-26T09:13:06;12.90;99.90
5621;DHT22;2832;50.864;12.186;2023-03-26T09:16:04;12.90;99.90
5621;DHT22;2832;50.864;12.186;2023-03-26T09:19:05;12.90;99.90
5621;DHT22;2832;50.864;12.186;2023-03-26T09:22:16;12.90;99.90
5621;DHT22;2832;50.864;12.186;2023-03-26T09:31:44;13.00;99.90
5621;DHT22;2832;50.864;12.186;2023-03-26T09:34:33;13.00;99.90
5621;DHT22;2832;50.864;12.186;2023-03-26T09:37:24;13.00;99.90
5621;DHT22;2832;50.864;12.186;2023-03-26T09:40:10;13.00;99.90
5621;DHT22;2832;50.864;12.186;2023-03-26T09:42:43;13.00;99.90
5621;DHT22;2832;50.864;12.186;2023-03-26T09:45:41;13.10;99.90
5621;DHT22;2832;50.864;12.186;2023-03-26T09:48:25;13.00;99.90
5621;DHT22;2832;50.864;12.186;2023-03-26T09:51:16;13.10;99.90
5621;DHT22;2832;50.864;12.186;2023-03-26T09:53:54;13.10;99.90
5621;DHT22;2832;50.864;12.186;2023-03-26T09:56:39;13.10;99.90
5621;DHT22;2832;50.864;12.186;2023-03-26T09:59:32;13.10;99.90
5621;DHT22;2832;50.864;12.186;2023-03-26T10:02:16;13.00;99.90
5621;DHT22;2832;50.864;12.186;2023-03-26T10:08:12;13.10;99.90
5621;DHT22;2832;50.864;12.186;2023-03-26T10:10:48;13.10;99.90
5621;DHT22;2832;50.864;12.186;2023-03-26T10:13:27;13.00;99.90
5621;DHT22;2832;50.864;12.186;2023-03-26T10:16:04;13.00;99.90
5621;DHT22;2832;50.864;12.186;2023-03-26T10:18:45;13.10;99.90
5621;DHT22;2832;50.864;12.186;2023-03-26T10:21:20;13.00;99.90
5621;DHT22;2832;50.864;12.186;2023-03-26T10:24:09;13.10;99.90
5621;DHT22;2832;50.864;12.186;2023-03-26T10:26:52;13.00;99.90
5621;DHT22;2832;50.864;12.186;2023-03-26T10:29:38;13.10;99.90
5621;DHT22;2832;50.864;12.186;2023-03-26T10:32:17;13.10;99.90
5621;DHT22;2832;50.864;12.186;2023-03-26T10:35:01;13.10;99.90
5621;DHT22;2832;50.864;12.186;2023-03-26T10:37:43;13.10;99.90
5621;DHT22;2832;50.864;12.186;2023-03-26T10:40:29;13.10;99.90
5621;DHT22;2832;50.864;12.186;2023-03-26T10:43:13;13.10;99.90
5621;DHT22;2832;50.864;12.186;2023-03-26T10:46:12;13.10;99.90
5621;DHT22;2832;50.864;12.186;2023-03-26T10:49:07;13.10;99.90
5621;DHT22;2832;50.864;12.186;2023-03-26T10:51:49;13.20;99.90
5621;DHT22;2832;50.864;12.186;2023-03-26T10:54:29;13.20;99.90
5621;DHT22;2832;50.864;12.186;2023-03-26T10:57:02;13.20;99.90
5621;DHT22;2832;50.864;12.186;2023-03-26T10:59:33;13.20;99.90
5621;DHT22;2832;50.864;12.186;2023-03-26T11:02:27;13.20;99.90
5621;DHT22;2832;50.864;12.186;2023-03-26T11:05:15;13.20;99.90
5621;DHT22;2832;50.864;12.186;2023-03-26T11:07:53;13.20;99.90
5621;DHT22;2832;50.864;12.186;2023-03-26T11:10:32;13.20;99.90
5621;DHT22;2832;50.864;12.186;2023-03-26T11:13:12;13.20;99.90
5621;DHT22;2832;50.864;12.186;2023-03-26T11:15:51;13.20;99.90
5621;DHT22;2832;50.864;12.186;2023-03-26T11:18:32;13.20;99.90
5621;DHT22;2832;50.864;12.186;2023-03-26T11:21:19;13.20;99.90
5621;DHT22;2832;50.864;12.186;2023-03-26T11:24:01;13.20;99.90
5621;DHT22;2832;50.864;12.186;2023-03-26T11:26:44;13.20;99.90
5621;DHT22;2832;50.864;12.186;2023-03-26T11:29:36;13.20;99.90
5621;DHT22;2832;50.864;12.186;2023-03-26T11:32:19;13.30;99.90
5621;DHT22;2832;50.864;12.186;2023-03-26T11:34:59;13.30;99.90
5621;DHT22;2832;50.864;12.186;2023-03-26T11:37:36;13.20;99.90
5621;DHT22;2832;50.864;12.186;2023-03-26T11:40:13;13.30;99.90
5621;DHT22;2832;50.864;12.186;2023-03-26T11:42:49;13.20;99.90
5621;DHT22;2832;50.864;12.186;2023-03-26T11:45:35;13.20;99.90
5621;DHT22;2832;50.864;12.186;2023-03-26T11:48:09;13.20;99.90
5621;DHT22;2832;50.864;12.186;2023-03-26T11:50:52;13.30;99.90
5621;DHT22;2832;50.864;12.186;2023-03-26T11:53:35;13.30;99.90
5621;DHT22;2832;50.864;12.186;2023-03-26T11:56:16;13.30;99.90
5621;DHT22;2832;50.864;12.186;2023-03-26T11:58:50;13.40;99.90
5621;DHT22;2832;50.864;12.186;2023-03-26T12:01:24;13.40;99.90
5621;DHT22;2832;50.864;12.186;2023-03-26T12:03:58;13.30;99.90
5621;DHT22;2832;50.864;12.186;2023-03-26T12:06:35;13.30;99.90
5621;DHT22;2832;50.864;12.186;2023-03-26T12:09:14;13.30;99.90
5621;DHT22;2832;50.864;12.186;2023-03-26T12:11:44;13.40;99.90
5621;DHT22;2832;50.864;12.186;2023-03-26T12:14:20;13.40;99.90
5621;DHT22;2832;50.864;12.186;2023-03-26T12:17:02;13.40;99.90
5621;DHT22;2832;50.864;12.186;2023-03-26T12:19:40;13.30;99.90
5621;DHT22;2832;50.864;12.186;2023-03-26T12:22:32;13.30;99.90
5621;DHT22;2832;50.864;12.186;2023-03-26T12:25:14;13.30;99.90
5621;DHT22;2832;50.864;12.186;2023-03-26T12:27:48;13.40;99.90
5621;DHT22;2832;50.864;12.186;2023-03-26T12:30:23;13.30;99.90
5621;DHT22;2832;50.864;12.186;2023-03-26T12:32:59;13.30;99.90
5621;DHT22;2832;50.864;12.186;2023-03-26T12:35:31;13.40;99.90
5621;DHT22;2832;50.864;12.186;2023-03-26T12:38:23;13.30;99.90
5621;DHT22;2832;50.864;12.186;2023-03-26T12:41:04;13.30;99.90
5621;DHT22;2832;50.864;12.186;2023-03-26T12:43:38;13.40;99.90
5621;DHT22;2832;50.864;12.186;2023-03-26T12:46:24;13.40;99.90
5621;DHT22;2832;50.864;12.186;2023-03-26T12:48:53;13.40;99.90
5621;DHT22;2832;50.864;12.186;2023-03-26T12:51:33;13.40;99.90
5621;DHT22;2832;50.864;12.186;2023-03-26T12:54:32;13.40;99.90
5621;DHT22;2832;50.864;12.186;2023-03-26T12:57:18;13.40;99.90
5621;DHT22;2832;50.864;12.186;2023-03-26T12:59:57;13.40;99.90
5621;DHT22;2832;50.864;12.186;2023-03-26T13:02:53;13.50;99.90
5621;DHT22;2832;50.864;12.186;2023-03-26T13:05:38;13.40;99.90
5621;DHT22;2832;50.864;12.186;2023-03-26T13:11:14;13.40;99.90
5621;DHT22;2832;50.864;12.186;2023-03-26T13:14:22;13.50;99.90
5621;DHT22;2832;50.864;12.186;2023-03-26T13:16:56;13.40;99.90
5621;DHT22;2832;50.864;12.186;2023-03-26T13:19:30;13.40;99.90
5621;DHT22;2832;50.864;12.186;2023-03-26T13:22:10;13.50;99.90
5621;DHT22;2832;50.864;12.186;2023-03-26T13:24:49;13.50;99.90
5621;DHT22;2832;50.864;12.186;2023-03-26T13:27:37;13.50;99.90
5621;DHT22;2832;50.864;12.186;2023-03-26T13:30:16;13.50;99.90
5621;DHT22;2832;50.864;12.186;2023-03-26T13:33:12;13.50;99.90
5621;DHT22;2832;50.864;12.186;2023-03-26T13:35:48;13.40;99.90
5621;DHT22;2832;50.864;12.186;2023-03-26T13:38:23;13.40;99.90
5621;DHT22;2832;50.864;12.186;2023-03-26T13:41:01;13.40;99.90
5621;DHT22;2832;50.864;12.186;2023-03-26T13:43:47;13.40;99.90
5621;DHT22;2832;50.864;12.186;2023-03-26T13:46:27;13.40;99.90
5621;DHT22;2832;50.864;12.186;2023-03-26T13:49:00;13.40;99.90
5621;DHT22;2832;50.864;12.186;2023-03-26T13:51:35;13.40;99.90
5621;DHT22;2832;50.864;12.186;2023-03-26T13:54:14;13.30;99.90
5621;DHT22;2832;50.864;12.186;2023-03-26T13:56:48;13.40;99.90
5621;DHT22;2832;50.864;12.186;2023-03-26T13:59:27;13.50;99.90
5621;DHT22;2832;50.864;12.186;2023-03-26T14:02:02;13.40;99.90
5621;DHT22;2832;50.864;12.186;2023-03-26T14:04:37;13.50;99.90
5621;DHT22;2832;50.864;12.186;2023-03-26T14:07:13;13.50;99.90
5621;DHT22;2832;50.864;12.186;2023-03-26T14:09:50;13.50;99.90
5621;DHT22;2832;50.864;12.186;2023-03-26T14:12:26;13.50;99.90
5621;DHT22;2832;50.864;12.186;2023-03-26T14:15:01;13.50;99.90
5621;DHT22;2832;50.864;12.186;2023-03-26T14:17:36;13.50;99.90
5621;DHT22;2832;50.864;12.186;2023-03-26T14:20:27;13.50;99.90
5621;DHT22;2832;50.864;12.186;2023-03-26T14:23:14;13.60;99.90
5621;DHT22;2832;50.864;12.186;2023-03-26T14:25:55;13.60;99.90
5621;DHT22;2832;50.864;12.186;2023-03-26T14:31:55;13.50;99.90
5621;DHT22;2832;50.864;12.186;2023-03-26T14:34:35;13.50;99.90
5621;DHT22;2832;50.864;12.186;2023-03-26T14:37:38;13.50;99.90
5621;DHT22;2832;50.864;12.186;2023-03-26T14:40:30;13.40;99.90
5621;DHT22;2832;50.864;12.186;2023-03-26T14:43:24;13.50;99.90
5621;DHT22;2832;50.864;12.186;2023-03-26T14:46:25;13.50;99.90
5621;DHT22;2832;50.864;12.186;2023-03-26T14:52:08;13.50;99.90
5621;DHT22;2832;50.864;12.186;2023-03-26T14:54:41;13.50;99.90
5621;DHT22;2832;50.864;12.186;2023-03-26T14:57:32;13.50;99.90
5621;DHT22;2832;50.864;12.186;2023-03-26T15:03:50;13.40;99.90
5621;DHT22;2832;50.864;12.186;2023-03-26T15:13:00;13.40;99.90
5621;DHT22;2832;50.864;12.186;2023-03-26T15:25:25;13.40;99.90
5621;DHT22;2832;50.864;12.186;2023-03-26T15:34:59;13.50;99.90
5621;DHT22;2832;50.864;12.186;2023-03-26T15:37:58;13.50;99.90
5621;DHT22;2832;50.864;12.186;2023-03-26T15:40:45;13.50;99.90
5621;DHT22;2832;50.864;12.186;2023-03-26T15:43:16;13.50;99.90
5621;DHT22;2832;50.864;12.186;2023-03-26T15:45:49;13.50;99.90
5621;DHT22;2832;50.864;12.186;2023-03-26T15:48:39;13.50;99.90
5621;DHT22;2832;50.864;12.186;2023-03-26T15:54:20;13.40;99.90
5621;DHT22;2832;50.864;12.186;2023-03-26T15:57:06;13.40;99.90
5621;DHT22;2832;50.864;12.186;2023-03-26T15:59:46;13.40;99.90
5621;DHT22;2832;50.864;12.186;2023-03-26T16:02:25;13.50;99.90
5621;DHT22;2832;50.864;12.186;2023-03-26T16:05:01;13.50;99.90
5621;DHT22;2832;50.864;12.186;2023-03-26T16:07:46;13.50;99.90
5621;DHT22;2832;50.864;12.186;2023-03-26T16:10:23;13.40;99.90
5621;DHT22;2832;50.864;12.186;2023-03-26T16:13:19;13.50;99.90
5621;DHT22;2832;50.864;12.186;2023-03-26T16:15:52;13.50;99.90
5621;DHT22;2832;50.864;12.186;2023-03-26T16:18:31;13.50;99.90
5621;DHT22;2832;50.864;12.186;2023-03-26T16:23:55;13.50;99.90
5621;DHT22;2832;50.864;12.186;2023-03-26T16:26:39;13.50;99.90
5621;DHT22;2832;50.864;12.186;2023-03-26T16:29:26;13.50;99.90
5621;DHT22;2832;50.864;12.186;2023-03-26T16:32:11;13.50;99.90
5621;DHT22;2832;50.864;12.186;2023-03-26T16:34:46;13.50;99.90
5621;DHT22;2832;50.864;12.186;2023-03-26T16:37:39;13.50;99.90
5621;DHT22;2832;50.864;12.186;2023-03-26T16:40:32;13.50;99.90
5621;DHT22;2832;50.864;12.186;2023-03-26T16:43:18;13.40;99.90
5621;DHT22;2832;50.864;12.186;2023-03-26T16:45:52;13.40;99.90
5621;DHT22;2832;50.864;12.186;2023-03-26T16:48:30;13.40;99.90
5621;DHT22;2832;50.864;12.186;2023-03-26T16:51:05;13.40;99.90
5621;DHT22;2832;50.864;12.186;2023-03-26T16:53:44;13.50;99.90
5621;DHT22;2832;50.864;12.186;2023-03-26T16:56:16;13.40;99.90
5621;DHT22;2832;50.864;12.186;2023-03-26T16:58:53;13.40;99.90
5621;DHT22;2832;50.864;12.186;2023-03-26T17:01:42;13.40;99.90
5621;DHT22;2832;50.864;12.186;2023-03-26T17:04:16;13.30;99.90
5621;DHT22;2832;50.864;12.186;2023-03-26T17:07:17;13.40;99.90
5621;DHT22;2832;50.864;12.186;2023-03-26T17:09:56;13.40;99.90
5621;DHT22;2832;50.864;12.186;2023-03-26T17:12:33;13.40;99.90
5621;DHT22;2832;50.864;12.186;2023-03-26T17:15:16;13.40;99.90
5621;DHT22;2832;50.864;12.186;2023-03-26T17:17:54;13.40;99.90
5621;DHT22;2832;50.864;12.186;2023-03-26T17:20:31;13.40;99.90
5621;DHT22;2832;50.864;12.186;2023-03-26T17:23:15;13.40;99.90
5621;DHT22;2832;50.864;12.186;2023-03-26T17:25:56;13.40;99.90
5621;DHT22;2832;50.864;12.186;2023-03-26T17:28:46;13.40;99.90
5621;DHT22;2832;50.864;12.186;2023-03-26T17:31:20;13.30;99.90
5621;DHT22;2832;50.864;12.186;2023-03-26T17:33:50;13.40;99.90
5621;DHT22;2832;50.864;12.186;2023-03-26T17:36:30;13.40;99.90
5621;DHT22;2832;50.864;12.186;2023-03-26T17:39:19;13.40;99.90
5621;DHT22;2832;50.864;12.186;2023-03-26T17:41:55;13.40;99.90
5621;DHT22;2832;50.864;12.186;2023-03-26T17:44:36;13.30;99.90
5621;DHT22;2832;50.864;12.186;2023-03-26T17:47:21;13.40;99.90
5621;DHT22;2832;50.864;12.186;2023-03-26T17:49:54;13.30;99.90
5621;DHT22;2832;50.864;12.186;2023-03-26T17:52:32;13.30;99.90
5621;DHT22;2832;50.864;12.186;2023-03-26T17:55:02;13.30;99.90
5621;DHT22;2832;50.864;12.186;2023-03-26T17:57:37;13.20;99.90